Time;durP1;ratioP1;P1;durP2;ratioP2;P2;SDS_P1;SDS_P2;PMS_P1;PMS_P2;Temp;Humidity;BMP_temperature;BMP_pressure;BME280_temperature;BME280_humidity;BME280_pressure;Samples;Min_cycle;Max_cycle;Signal;HPM_P1;HPM_P2
2022/01/17 00:00:37;;;;;;;15.90;7.43;;;;;;;;;;6336615;22;20019;-75
2022/01/17 00:03:06;;;;;;;15.93;6.97;;;;;;;;;;6284371;22;20041;-75
2022/01/17 00:05:35;;;;;;;17.58;7.97;;;;;;;;;;6310716;22;20023;-75
2022/01/17 00:08:07;;;;;;;13.40;7.65;;;;;;;;;;6339908;22;20086;-75
2022/01/17 00:10:37;;;;;;;18.55;8.38;;;;;;;;;;6343593;22;20018;-75
2022/01/17 00:13:10;;;;;;;17.98;6.85;;;;;;;;;;6342570;22;20445;-75
2022/01/17 00:15:47;;;;;;;13.17;5.67;;;;;;;;;;6344230;22;20017;-75
2022/01/17 00:21:06;;;;;;;11.63;5.95;;;;;;;;;;6310738;22;20031;-75
2022/01/17 00:23:42;;;;;;;14.60;6.20;;;;;;;;;;6349724;22;20026;-75
2022/01/17 00:26:15;;;;;;;17.70;7.90;;;;;;;;;;6343028;22;20090;-75
2022/01/17 00:28:45;;;;;;;14.07;6.33;;;;;;;;;;6338878;22;20034;-75
2022/01/17 00:31:14;;;;;;;12.98;6.20;;;;;;;;;;6337270;22;20022;-75
2022/01/17 00:33:44;;;;;;;12.50;5.97;;;;;;;;;;6336593;22;20038;-75
2022/01/17 00:36:13;;;;;;;15.32;5.80;;;;;;;;;;6336887;22;20069;-75
2022/01/17 00:38:41;;;;;;;15.77;5.82;;;;;;;;;;6337438;22;20461;-75
2022/01/17 00:41:13;;;;;;;11.20;5.57;;;;;;;;;;6337214;22;20077;-75
2022/01/17 00:43:46;;;;;;;14.52;5.88;;;;;;;;;;6337651;22;20345;-75
2022/01/17 00:46:15;;;;;;;15.40;6.53;;;;;;;;;;6337128;22;20019;-75
2022/01/17 00:48:44;;;;;;;14.05;6.05;;;;;;;;;;6336872;22;20022;-75
2022/01/17 00:51:13;;;;;;;20.50;7.18;;;;;;;;;;6336459;22;20018;-75
2022/01/17 00:53:42;;;;;;;16.67;6.43;;;;;;;;;;6309280;22;20043;-75
2022/01/17 00:56:11;;;;;;;13.52;5.00;;;;;;;;;;6337186;22;20412;-75
2022/01/17 00:58:40;;;;;;;15.23;6.07;;;;;;;;;;6336481;22;20388;-75
2022/01/17 01:01:14;;;;;;;13.40;7.13;;;;;;;;;;6336274;22;20090;-75
2022/01/17 01:03:44;;;;;;;19.70;6.90;;;;;;;;;;6336576;22;20401;-75
2022/01/17 01:06:13;;;;;;;14.67;7.43;;;;;;;;;;6336461;22;20509;-76
2022/01/17 01:08:42;;;;;;;11.40;6.18;;;;;;;;;;6283370;22;20023;-75
2022/01/17 01:11:12;;;;;;;12.82;5.78;;;;;;;;;;6309426;22;20079;-75
2022/01/17 01:13:41;;;;;;;16.90;6.93;;;;;;;;;;6336684;22;20022;-75
2022/01/17 01:16:32;;;;;;;15.02;6.85;;;;;;;;;;6335882;22;20019;-75
2022/01/17 01:19:25;;;;;;;15.73;6.37;;;;;;;;;;6336941;22;20015;-75
2022/01/17 01:27:39;;;;;;;12.98;6.45;;;;;;;;;;6336572;22;20083;-75
2022/01/17 01:27:56;;;;;;;15.43;6.55;;;;;;;;;;6307770;22;20437;-76
2022/01/17 01:30:28;;;;;;;14.48;6.18;;;;;;;;;;6336963;22;20014;-75
2022/01/17 01:32:59;;;;;;;15.60;5.53;;;;;;;;;;6335505;22;20349;-75
2022/01/17 01:35:31;;;;;;;13.13;6.10;;;;;;;;;;6336234;22;20014;-75
2022/01/17 01:38:01;;;;;;;12.73;6.55;;;;;;;;;;6336583;22;20014;-75
2022/01/17 01:40:30;;;;;;;15.35;6.75;;;;;;;;;;6336997;22;20053;-75
2022/01/17 01:42:59;;;;;;;16.92;6.88;;;;;;;;;;6335672;22;20015;-75
2022/01/17 01:45:28;;;;;;;10.17;5.33;;;;;;;;;;6336518;22;20022;-75
2022/01/17 01:47:59;;;;;;;16.17;6.85;;;;;;;;;;6336440;22;20026;-75
2022/01/17 01:53:45;;;;;;;14.45;5.70;;;;;;;;;;6335770;22;20014;-75
2022/01/17 01:56:14;;;;;;;13.70;6.35;;;;;;;;;;6336847;22;20025;-75
2022/01/17 01:58:44;;;;;;;16.07;6.70;;;;;;;;;;6336220;22;20061;-75
2022/01/17 02:01:13;;;;;;;15.30;5.85;;;;;;;;;;6336554;22;20022;-75
2022/01/17 02:04:09;;;;;;;15.30;6.50;;;;;;;;;;6336229;22;20099;-75
2022/01/17 02:06:40;;;;;;;14.32;7.07;;;;;;;;;;6336450;22;20341;-75
2022/01/17 02:09:10;;;;;;;18.85;7.13;;;;;;;;;;6335909;22;20050;-75
2022/01/17 02:11:39;;;;;;;15.73;7.57;;;;;;;;;;6335957;22;20376;-75
2022/01/17 02:14:08;;;;;;;14.20;6.93;;;;;;;;;;6336186;22;20449;-75
2022/01/17 02:16:38;;;;;;;19.75;7.95;;;;;;;;;;6337404;22;20048;-75
2022/01/17 02:19:10;;;;;;;15.90;7.97;;;;;;;;;;6308379;22;20011;-75
2022/01/17 02:21:46;;;;;;;14.50;6.70;;;;;;;;;;6335608;22;20044;-75
2022/01/17 02:24:16;;;;;;;14.73;6.07;;;;;;;;;;6335986;22;20096;-75
2022/01/17 02:26:45;;;;;;;13.50;7.15;;;;;;;;;;6335807;22;20604;-75
2022/01/17 02:29:19;;;;;;;17.05;6.88;;;;;;;;;;6335391;22;20378;-75
2022/01/17 02:31:48;;;;;;;12.70;6.60;;;;;;;;;;6334622;22;20024;-75
2022/01/17 02:34:17;;;;;;;18.92;7.55;;;;;;;;;;6335962;22;20035;-75
2022/01/17 02:36:52;;;;;;;10.53;5.23;;;;;;;;;;6336572;22;20041;-75
2022/01/17 02:39:21;;;;;;;19.50;6.90;;;;;;;;;;6335999;22;20023;-76
2022/01/17 02:41:50;;;;;;;17.27;7.35;;;;;;;;;;6336308;22;20014;-75
2022/01/17 02:44:19;;;;;;;15.38;6.03;;;;;;;;;;6335866;22;20010;-75
2022/01/17 02:46:48;;;;;;;22.13;8.30;;;;;;;;;;6335796;22;20097;-75
2022/01/17 02:49:18;;;;;;;15.90;6.83;;;;;;;;;;6335522;22;20015;-75
2022/01/17 02:51:48;;;;;;;23.63;7.63;;;;;;;;;;6335995;22;20043;-75
2022/01/17 02:54:19;;;;;;;15.68;5.88;;;;;;;;;;6335935;22;20061;-75
2022/01/17 02:56:50;;;;;;;20.27;7.28;;;;;;;;;;6308244;22;20030;-75
2022/01/17 02:59:19;;;;;;;13.48;5.38;;;;;;;;;;6308188;22;20030;-75
2022/01/17 03:01:48;;;;;;;19.13;6.50;;;;;;;;;;6335968;22;20086;-75
2022/01/17 03:04:17;;;;;;;15.85;6.50;;;;;;;;;;6307887;22;20093;-75
2022/01/17 03:06:47;;;;;;;15.35;6.88;;;;;;;;;;6336491;22;20056;-75
2022/01/17 03:09:19;;;;;;;19.02;7.00;;;;;;;;;;6335835;22;20015;-75
2022/01/17 03:11:49;;;;;;;15.88;7.25;;;;;;;;;;6336205;22;20037;-75
2022/01/17 03:14:18;;;;;;;15.00;6.27;;;;;;;;;;6336540;22;20011;-75
2022/01/17 03:16:51;;;;;;;16.65;8.70;;;;;;;;;;6335960;22;20287;-75
2022/01/17 03:19:21;;;;;;;13.18;6.70;;;;;;;;;;6336660;22;20018;-75
2022/01/17 03:22:17;;;;;;;18.48;6.88;;;;;;;;;;6336062;22;20054;-75
2022/01/17 03:24:48;;;;;;;18.98;7.03;;;;;;;;;;6336764;22;20015;-75
2022/01/17 03:27:18;;;;;;;19.60;7.53;;;;;;;;;;6337867;22;20037;-75
2022/01/17 03:29:47;;;;;;;14.68;6.60;;;;;;;;;;6340776;22;20011;-76
2022/01/17 03:32:16;;;;;;;15.20;7.85;;;;;;;;;;6345716;22;20015;-75
2022/01/17 03:34:47;;;;;;;16.88;6.85;;;;;;;;;;6346971;22;20007;-75
2022/01/17 03:37:16;;;;;;;18.75;7.75;;;;;;;;;;6348426;22;20523;-75
2022/01/17 03:39:46;;;;;;;14.63;5.47;;;;;;;;;;6349061;22;20094;-75
2022/01/17 03:42:18;;;;;;;14.18;6.70;;;;;;;;;;6319767;22;20019;-75
2022/01/17 03:44:48;;;;;;;19.08;7.45;;;;;;;;;;6348512;22;20025;-75
2022/01/17 03:47:17;;;;;;;14.02;5.43;;;;;;;;;;6349520;22;20022;-75
2022/01/17 03:49:47;;;;;;;17.67;6.05;;;;;;;;;;6341903;22;20039;-75
2022/01/17 03:52:16;;;;;;;19.40;6.73;;;;;;;;;;6312673;22;20514;-75
2022/01/17 03:54:49;;;;;;;16.38;6.95;;;;;;;;;;6337891;22;20011;-75
2022/01/17 03:57:20;;;;;;;15.35;6.22;;;;;;;;;;6337354;22;20025;-75
2022/01/17 03:59:49;;;;;;;15.18;7.28;;;;;;;;;;6336470;22;20019;-75
2022/01/17 04:02:18;;;;;;;16.70;6.50;;;;;;;;;;6310131;22;20018;-75
2022/01/17 04:04:47;;;;;;;16.40;6.87;;;;;;;;;;6337318;22;20086;-75
2022/01/17 04:07:17;;;;;;;18.85;6.97;;;;;;;;;;6336653;22;20380;-75
2022/01/17 04:09:46;;;;;;;18.00;7.63;;;;;;;;;;6335887;22;20015;-75
2022/01/17 04:12:15;;;;;;;12.30;6.28;;;;;;;;;;6335829;22;20018;-75
2022/01/17 04:15:12;;;;;;;18.40;7.38;;;;;;;;;;6335527;22;20337;-75
2022/01/17 04:17:42;;;;;;;15.63;7.53;;;;;;;;;;6335728;22;20461;-75
2022/01/17 04:20:15;;;;;;;16.85;7.95;;;;;;;;;;6335884;22;20019;-75
2022/01/17 04:22:51;;;;;;;18.40;7.35;;;;;;;;;;6335323;22;20018;-76
2022/01/17 04:25:20;;;;;;;18.88;7.53;;;;;;;;;;6335814;22;20774;-76
2022/01/17 04:28:15;;;;;;;16.90;6.47;;;;;;;;;;6338502;22;20019;-75
2022/01/17 04:30:45;;;;;;;17.60;6.13;;;;;;;;;;6336900;22;20019;-75
2022/01/17 04:33:15;;;;;;;14.50;5.65;;;;;;;;;;6336636;22;20460;-75
2022/01/17 04:35:44;;;;;;;16.77;7.30;;;;;;;;;;6337890;22;20019;-75
2022/01/17 04:38:17;;;;;;;12.02;5.30;;;;;;;;;;6337876;22;20053;-75
2022/01/17 04:40:47;;;;;;;14.07;6.65;;;;;;;;;;6336660;22;20010;-75
2022/01/17 04:43:20;;;;;;;17.73;6.43;;;;;;;;;;6337899;22;20434;-75
2022/01/17 04:45:52;;;;;;;17.33;7.60;;;;;;;;;;6336991;22;20081;-75
2022/01/17 04:48:21;;;;;;;15.77;6.38;;;;;;;;;;6335923;22;20037;-75
2022/01/17 04:50:51;;;;;;;14.15;5.90;;;;;;;;;;6336595;22;20015;-75
2022/01/17 04:53:21;;;;;;;14.80;6.95;;;;;;;;;;6337263;22;20015;-75
2022/01/17 04:55:50;;;;;;;17.80;7.20;;;;;;;;;;6336517;22;20094;-75
2022/01/17 04:58:20;;;;;;;20.45;6.75;;;;;;;;;;6337535;22;20397;-75
2022/01/17 05:00:49;;;;;;;14.90;6.82;;;;;;;;;;6336864;22;20010;-75
2022/01/17 05:03:21;;;;;;;18.00;6.93;;;;;;;;;;6336140;22;20042;-75
2022/01/17 05:05:55;;;;;;;26.15;8.07;;;;;;;;;;6309270;22;20041;-75
2022/01/17 05:08:24;;;;;;;8.43;6.40;;;;;;;;;;6336734;22;20437;-75
2022/01/17 05:10:55;;;;;;;18.13;7.20;;;;;;;;;;6336313;22;20015;-75
2022/01/17 05:13:31;;;;;;;16.45;6.72;;;;;;;;;;6336038;22;20030;-75
2022/01/17 05:16:16;;;;;;;18.45;5.63;;;;;;;;;;6336852;22;20022;-75
2022/01/17 05:21:33;;;;;;;15.13;7.03;;;;;;;;;;6336257;22;20090;-75
2022/01/17 05:24:27;;;;;;;13.70;6.78;;;;;;;;;;6310388;22;20455;-75
2022/01/17 05:26:56;;;;;;;18.40;6.93;;;;;;;;;;6336409;22;20021;-75
2022/01/17 05:29:25;;;;;;;18.73;6.20;;;;;;;;;;6308642;22;20393;-75
2022/01/17 05:31:54;;;;;;;15.38;5.65;;;;;;;;;;6335671;22;20397;-75
2022/01/17 05:34:26;;;;;;;16.50;7.80;;;;;;;;;;6336800;22;20011;-75
2022/01/17 05:36:56;;;;;;;22.27;8.73;;;;;;;;;;6308623;22;20014;-75
2022/01/17 05:39:25;;;;;;;20.15;7.95;;;;;;;;;;6309209;22;20021;-75
2022/01/17 05:41:54;;;;;;;16.55;6.88;;;;;;;;;;6308971;22;20015;-74
2022/01/17 05:44:23;;;;;;;20.30;7.50;;;;;;;;;;6337598;22;20025;-75
2022/01/17 05:46:52;;;;;;;15.43;7.10;;;;;;;;;;6336944;22;20014;-75
2022/01/17 05:49:21;;;;;;;16.92;7.03;;;;;;;;;;6337811;22;20027;-76
2022/01/17 05:51:52;;;;;;;22.20;7.82;;;;;;;;;;6337834;22;20018;-78
2022/01/17 05:54:21;;;;;;;15.40;5.68;;;;;;;;;;6336087;22;20019;-72
2022/01/17 05:59:45;;;;;;;14.23;5.57;;;;;;;;;;6339596;22;20018;-77
2022/01/17 06:02:15;;;;;;;14.50;5.85;;;;;;;;;;6337082;22;20045;-79
2022/01/17 06:04:45;;;;;;;15.32;6.22;;;;;;;;;;6319138;22;20015;-80
2022/01/17 06:10:29;;;;;;;13.18;5.55;;;;;;;;;;6358494;22;20023;-79
2022/01/17 06:13:01;;;;;;;13.82;5.38;;;;;;;;;;6312565;22;20003;-80
2022/01/17 06:15:32;;;;;;;12.47;6.27;;;;;;;;;;6271656;22;20118;-79
2022/01/17 06:18:02;;;;;;;18.80;6.50;;;;;;;;;;6322653;22;20022;-79
2022/01/17 06:20:32;;;;;;;16.33;6.45;;;;;;;;;;6305756;22;20070;-81
2022/01/17 06:23:06;;;;;;;16.77;6.80;;;;;;;;;;6317635;22;20008;-74
2022/01/17 06:25:36;;;;;;;11.27;4.95;;;;;;;;;;6302757;22;20426;-74
2022/01/17 06:28:07;;;;;;;23.80;6.43;;;;;;;;;;6305269;22;20019;-75
2022/01/17 06:30:36;;;;;;;20.38;7.32;;;;;;;;;;6305072;22;20015;-74
2022/01/17 06:33:04;;;;;;;19.38;5.90;;;;;;;;;;6303224;22;20346;-74
2022/01/17 06:35:34;;;;;;;13.32;5.35;;;;;;;;;;6304867;22;20018;-75
2022/01/17 06:38:03;;;;;;;16.65;5.53;;;;;;;;;;6305268;22;20017;-74
2022/01/17 06:40:32;;;;;;;14.07;6.50;;;;;;;;;;6305450;22;20030;-75
2022/01/17 06:43:08;;;;;;;18.90;6.65;;;;;;;;;;6306298;22;20026;-75
2022/01/17 06:45:37;;;;;;;11.50;5.10;;;;;;;;;;6305850;22;20022;-76
2022/01/17 06:48:10;;;;;;;13.48;4.95;;;;;;;;;;6307059;22;20095;-75
2022/01/17 06:50:39;;;;;;;18.38;6.53;;;;;;;;;;6307421;22;20023;-76
2022/01/17 06:53:08;;;;;;;14.13;6.33;;;;;;;;;;6307190;22;20037;-76
2022/01/17 06:55:36;;;;;;;14.82;5.15;;;;;;;;;;6315024;22;20019;-76
2022/01/17 06:58:09;;;;;;;16.67;5.97;;;;;;;;;;6316164;22;20030;-76
2022/01/17 07:00:38;;;;;;;17.20;7.80;;;;;;;;;;6314795;22;20027;-76
2022/01/17 07:03:07;;;;;;;14.88;6.65;;;;;;;;;;6316982;22;20027;-75
2022/01/17 07:05:36;;;;;;;14.97;6.97;;;;;;;;;;6317327;22;20015;-77
2022/01/17 07:08:05;;;;;;;12.70;5.78;;;;;;;;;;6315786;22;20015;-77
2022/01/17 07:10:34;;;;;;;14.10;5.75;;;;;;;;;;6308778;22;20011;-75
2022/01/17 07:13:07;;;;;;;13.55;5.15;;;;;;;;;;6304321;22;20027;-78
2022/01/17 07:15:40;;;;;;;13.60;5.57;;;;;;;;;;6306462;22;20346;-75
2022/01/17 07:18:11;;;;;;;11.37;4.30;;;;;;;;;;6305399;22;20098;-75
2022/01/17 07:20:41;;;;;;;11.55;5.07;;;;;;;;;;6320891;22;20027;-74
2022/01/17 07:23:12;;;;;;;13.32;5.15;;;;;;;;;;6309525;22;20019;-75
2022/01/17 07:25:41;;;;;;;15.02;5.25;;;;;;;;;;6335235;22;20345;-74
2022/01/17 07:28:12;;;;;;;11.65;4.63;;;;;;;;;;6335742;22;20022;-74
2022/01/17 07:30:43;;;;;;;12.17;5.10;;;;;;;;;;6308035;22;20029;-74
2022/01/17 07:33:12;;;;;;;12.27;5.40;;;;;;;;;;6335560;22;20014;-74
2022/01/17 07:35:41;;;;;;;12.25;3.83;;;;;;;;;;6335020;22;20018;-74
2022/01/17 07:38:10;;;;;;;10.57;4.43;;;;;;;;;;6337078;22;20458;-79
2022/01/17 07:40:39;;;;;;;12.13;4.57;;;;;;;;;;6337854;22;20025;-77
2022/01/17 07:43:09;;;;;;;13.10;4.37;;;;;;;;;;6337186;22;20338;-77
2022/01/17 07:45:44;;;;;;;14.70;4.68;;;;;;;;;;6335869;22;20026;-77
2022/01/17 07:48:55;;;;;;;12.95;4.40;;;;;;;;;;6342374;22;20068;-80
2022/01/17 07:51:24;;;;;;;12.50;5.50;;;;;;;;;;6336820;22;20021;-79
2022/01/17 07:53:53;;;;;;;11.65;3.80;;;;;;;;;;6335503;22;20022;-77
2022/01/17 07:56:22;;;;;;;13.63;3.93;;;;;;;;;;6336436;22;20026;-77
2022/01/17 07:58:51;;;;;;;11.68;4.18;;;;;;;;;;6309200;22;20448;-77
2022/01/17 08:04:15;;;;;;;9.27;4.38;;;;;;;;;;6338660;22;20051;-77
2022/01/17 08:06:46;;;;;;;13.18;5.03;;;;;;;;;;6310070;22;20380;-77
2022/01/17 08:09:41;;;;;;;8.80;3.57;;;;;;;;;;6311006;22;20050;-77
2022/01/17 08:12:10;;;;;;;14.70;5.65;;;;;;;;;;6337011;22;20042;-77
2022/01/17 08:14:41;;;;;;;12.45;4.38;;;;;;;;;;6309338;22;20023;-77
2022/01/17 08:17:11;;;;;;;16.70;4.65;;;;;;;;;;6339852;22;20014;-77
2022/01/17 08:19:41;;;;;;;13.10;5.25;;;;;;;;;;6290106;22;20108;-77
2022/01/17 08:22:35;;;;;;;11.80;4.90;;;;;;;;;;6336744;22;20025;-77
2022/01/17 08:25:07;;;;;;;12.63;5.13;;;;;;;;;;6311988;22;20018;-75
2022/01/17 08:27:36;;;;;;;11.45;5.35;;;;;;;;;;6338130;22;20086;-76
2022/01/17 08:30:07;;;;;;;11.18;3.42;;;;;;;;;;6337453;22;20082;-76
2022/01/17 08:32:59;;;;;;;9.40;3.65;;;;;;;;;;6337251;22;20061;-79
2022/01/17 08:35:30;;;;;;;18.97;5.60;;;;;;;;;;6340348;22;20108;-78
2022/01/17 08:37:59;;;;;;;15.20;4.00;;;;;;;;;;6338221;22;20045;-76
2022/01/17 08:40:28;;;;;;;11.70;3.40;;;;;;;;;;6336835;22;20460;-76
2022/01/17 08:42:58;;;;;;;12.15;3.70;;;;;;;;;;6337767;22;20014;-76
2022/01/17 08:45:29;;;;;;;10.45;5.63;;;;;;;;;;6336474;22;20029;-76
2022/01/17 08:48:12;;;;;;;9.40;4.23;;;;;;;;;;6339514;22;20014;-76
2022/01/17 08:50:46;;;;;;;12.07;4.78;;;;;;;;;;6336108;22;20477;-76
2022/01/17 08:53:15;;;;;;;12.57;5.07;;;;;;;;;;6309671;22;20393;-76
2022/01/17 08:55:46;;;;;;;13.55;5.15;;;;;;;;;;6336705;22;20014;-76
2022/01/17 08:58:16;;;;;;;14.93;4.45;;;;;;;;;;6333908;22;20093;-76
2022/01/17 09:00:46;;;;;;;15.93;5.33;;;;;;;;;;6337549;22;20060;-76
2022/01/17 09:03:21;;;;;;;9.77;4.15;;;;;;;;;;6342384;22;20005;-80
2022/01/17 09:11:36;;;;;;;11.90;3.47;;;;;;;;;;6335988;22;20044;-75
2022/01/17 09:14:07;;;;;;;12.87;4.00;;;;;;;;;;6337747;22;20441;-76
2022/01/17 09:19:30;;;;;;;11.65;4.35;;;;;;;;;;6336943;22;20015;-76
2022/01/17 09:21:59;;;;;;;11.07;4.72;;;;;;;;;;6332579;22;20046;-75
2022/01/17 09:24:29;;;;;;;10.82;4.65;;;;;;;;;;6337217;22;20490;-75
2022/01/17 09:26:58;;;;;;;11.77;4.27;;;;;;;;;;6336811;22;20007;-76
2022/01/17 09:29:27;;;;;;;11.43;4.13;;;;;;;;;;6335923;22;20019;-76
2022/01/17 09:31:56;;;;;;;13.38;5.05;;;;;;;;;;6335991;22;20030;-76
2022/01/17 09:34:26;;;;;;;11.77;4.30;;;;;;;;;;6337630;22;20049;-76
2022/01/17 09:36:56;;;;;;;10.45;4.07;;;;;;;;;;6336743;22;20770;-76
2022/01/17 09:39:25;;;;;;;7.60;3.30;;;;;;;;;;6336992;22;20441;-76
2022/01/17 09:41:55;;;;;;;12.88;3.55;;;;;;;;;;6308582;22;20457;-76
2022/01/17 09:44:24;;;;;;;9.73;3.67;;;;;;;;;;6308566;22;20095;-76
2022/01/17 09:46:56;;;;;;;9.57;3.88;;;;;;;;;;6337965;22;20019;-76
2022/01/17 09:49:33;;;;;;;6.70;2.97;;;;;;;;;;6336419;22;20023;-76
2022/01/17 09:52:08;;;;;;;8.80;3.77;;;;;;;;;;6337109;22;20039;-76
2022/01/17 09:54:39;;;;;;;9.10;3.33;;;;;;;;;;6337087;22;20019;-76
2022/01/17 09:57:09;;;;;;;9.50;3.50;;;;;;;;;;6339470;22;20067;-78
2022/01/17 09:59:42;;;;;;;9.23;4.07;;;;;;;;;;6342882;22;20040;-80
2022/01/17 10:05:05;;;;;;;6.40;3.80;;;;;;;;;;6337480;22;20396;-76
2022/01/17 10:08:06;;;;;;;9.73;3.97;;;;;;;;;;6312727;22;20021;-77
2022/01/17 10:10:40;;;;;;;11.65;3.90;;;;;;;;;;6345215;22;20018;-77
2022/01/17 10:13:11;;;;;;;8.85;4.32;;;;;;;;;;6318078;22;20045;-77
2022/01/17 10:15:56;;;;;;;5.93;2.75;;;;;;;;;;6319779;22;20019;-77
2022/01/17 10:18:26;;;;;;;8.97;3.83;;;;;;;;;;6347615;22;20034;-77
2022/01/17 10:21:00;;;;;;;9.30;3.33;;;;;;;;;;6347294;22;20089;-77
2022/01/17 10:24:10;;;;;;;10.57;3.70;;;;;;;;;;6346338;22;20098;-77
2022/01/17 10:29:57;;;;;;;12.82;4.55;;;;;;;;;;6310542;22;20047;-76
2022/01/17 10:35:17;;;;;;;10.98;4.25;;;;;;;;;;6307358;22;20007;-76
2022/01/17 10:37:56;;;;;;;7.53;3.65;;;;;;;;;;6334074;22;20090;-77
2022/01/17 10:40:26;;;;;;;8.43;3.42;;;;;;;;;;6307586;22;20040;-77
2022/01/17 10:43:00;;;;;;;8.55;3.50;;;;;;;;;;6336143;22;20341;-73
2022/01/17 10:45:33;;;;;;;9.27;3.30;;;;;;;;;;6335089;22;20046;-76
2022/01/17 10:48:03;;;;;;;7.45;3.45;;;;;;;;;;6307393;22;20036;-76
2022/01/17 10:53:52;;;;;;;11.88;4.05;;;;;;;;;;6338202;22;20018;-76
2022/01/17 10:56:39;;;;;;;8.13;4.57;;;;;;;;;;6342044;22;20018;-74
2022/01/17 10:59:09;;;;;;;10.57;4.23;;;;;;;;;;6310039;22;20438;-75
2022/01/17 11:01:39;;;;;;;7.63;4.03;;;;;;;;;;6336760;22;20022;-75
2022/01/17 11:04:09;;;;;;;6.97;2.63;;;;;;;;;;6335169;22;20065;-76
2022/01/17 11:06:57;;;;;;;8.80;4.28;;;;;;;;;;6307302;22;20029;-75
2022/01/17 11:09:38;;;;;;;13.25;2.72;;;;;;;;;;6336305;22;20093;-76
2022/01/17 11:12:10;;;;;;;6.57;3.80;;;;;;;;;;6336775;22;20023;-76
2022/01/17 11:14:39;;;;;;;7.20;2.47;;;;;;;;;;6308632;22;20023;-75
2022/01/17 11:17:15;;;;;;;8.60;3.47;;;;;;;;;;6308650;22;20338;-76
2022/01/17 11:20:05;;;;;;;6.13;2.83;;;;;;;;;;6337139;22;20015;-77
2022/01/17 11:22:43;;;;;;;5.95;2.60;;;;;;;;;;6313065;22;20023;-76
2022/01/17 11:25:33;;;;;;;10.43;3.77;;;;;;;;;;6337536;22;20018;-77
2022/01/17 11:28:30;;;;;;;8.80;3.72;;;;;;;;;;6341750;22;20121;-77
2022/01/17 11:31:04;;;;;;;7.00;2.42;;;;;;;;;;6335997;22;20025;-77
2022/01/17 11:33:36;;;;;;;6.95;2.78;;;;;;;;;;6335635;22;20501;-77
2022/01/17 11:36:07;;;;;;;9.23;3.45;;;;;;;;;;6339163;22;20007;-77
2022/01/17 11:38:41;;;;;;;5.33;2.27;;;;;;;;;;6340026;22;20064;-75
2022/01/17 11:41:23;;;;;;;5.68;3.05;;;;;;;;;;6339580;22;20015;-78
2022/01/17 11:43:57;;;;;;;11.93;3.78;;;;;;;;;;6337310;22;20023;-74
2022/01/17 11:46:27;;;;;;;9.48;3.67;;;;;;;;;;6310448;22;20433;-74
2022/01/17 11:48:59;;;;;;;6.50;2.67;;;;;;;;;;6308494;22;20030;-72
2022/01/17 11:51:37;;;;;;;8.60;3.40;;;;;;;;;;6334768;22;20434;-72
2022/01/17 11:54:13;;;;;;;8.50;2.45;;;;;;;;;;6337697;22;20039;-73
2022/01/17 11:56:47;;;;;;;6.43;2.47;;;;;;;;;;6336135;22;20015;-72
2022/01/17 11:59:35;;;;;;;6.28;2.25;;;;;;;;;;6336359;22;20011;-72
2022/01/17 12:02:29;;;;;;;4.93;1.77;;;;;;;;;;6336594;22;20380;-72
2022/01/17 12:05:23;;;;;;;3.87;1.83;;;;;;;;;;6303902;22;20019;-72
2022/01/17 12:07:55;;;;;;;5.10;2.35;;;;;;;;;;6307339;22;20015;-72
2022/01/17 12:10:25;;;;;;;5.47;2.45;;;;;;;;;;6306078;22;20015;-73
2022/01/17 12:13:22;;;;;;;7.57;2.70;;;;;;;;;;6305411;22;20012;-73
2022/01/17 12:15:58;;;;;;;6.80;2.65;;;;;;;;;;6305369;22;20498;-72
2022/01/17 12:18:28;;;;;;;7.77;3.13;;;;;;;;;;6307215;22;20086;-73
2022/01/17 12:20:57;;;;;;;10.85;2.70;;;;;;;;;;6279560;22;20022;-72
2022/01/17 12:23:29;;;;;;;10.65;2.92;;;;;;;;;;6307314;22;20461;-73
2022/01/17 12:26:25;;;;;;;7.53;2.42;;;;;;;;;;6306865;22;20519;-75
2022/01/17 12:28:56;;;;;;;6.80;2.40;;;;;;;;;;6308044;22;20046;-76
2022/01/17 12:31:49;;;;;;;6.43;2.37;;;;;;;;;;6279604;22;20019;-75
2022/01/17 12:34:43;;;;;;;5.80;2.08;;;;;;;;;;6306595;22;20015;-76
2022/01/17 12:37:40;;;;;;;8.57;2.58;;;;;;;;;;6307055;22;20403;-76
2022/01/17 12:40:12;;;;;;;8.88;2.90;;;;;;;;;;6234735;22;20045;-74
2022/01/17 12:42:49;;;;;;;5.10;2.22;;;;;;;;;;6307029;22;20315;-73
2022/01/17 12:45:22;;;;;;;5.60;2.13;;;;;;;;;;6303185;22;20423;-73
2022/01/17 12:47:52;;;;;;;4.93;2.15;;;;;;;;;;6304063;22;20457;-73
2022/01/17 12:50:22;;;;;;;7.13;2.80;;;;;;;;;;6305900;22;20015;-73
2022/01/17 12:52:54;;;;;;;5.93;2.20;;;;;;;;;;6306085;22;20019;-73
2022/01/17 12:55:26;;;;;;;7.43;3.20;;;;;;;;;;6305712;22;20465;-73
2022/01/17 12:57:55;;;;;;;5.77;2.63;;;;;;;;;;6305732;22;20017;-73
2022/01/17 13:00:27;;;;;;;4.45;1.45;;;;;;;;;;6305470;22;20015;-73
2022/01/17 13:02:57;;;;;;;8.93;3.10;;;;;;;;;;6304766;22;20444;-73
2022/01/17 13:05:27;;;;;;;7.40;2.70;;;;;;;;;;6311864;22;20019;-72
2022/01/17 13:07:57;;;;;;;6.03;3.08;;;;;;;;;;6306600;22;20019;-72
2022/01/17 13:10:29;;;;;;;7.37;3.03;;;;;;;;;;6278361;22;20019;-74
2022/01/17 13:12:59;;;;;;;5.47;2.42;;;;;;;;;;6305482;22;20011;-73
2022/01/17 13:15:28;;;;;;;11.32;3.45;;;;;;;;;;6305708;22;20023;-73
2022/01/17 13:17:58;;;;;;;6.30;3.10;;;;;;;;;;6305249;22;20049;-74
2022/01/17 13:20:29;;;;;;;4.55;2.47;;;;;;;;;;6306251;22;20022;-74
2022/01/17 13:23:07;;;;;;;7.07;3.10;;;;;;;;;;6306185;22;20025;-73
2022/01/17 13:25:37;;;;;;;7.53;2.85;;;;;;;;;;6305982;22;20012;-73
2022/01/17 13:28:06;;;;;;;8.40;2.83;;;;;;;;;;6305822;22;20091;-73
2022/01/17 13:30:36;;;;;;;7.95;3.35;;;;;;;;;;6310324;22;20011;-75
2022/01/17 13:33:20;;;;;;;9.85;2.97;;;;;;;;;;6314062;22;20019;-74
2022/01/17 13:35:54;;;;;;;6.27;2.67;;;;;;;;;;6317113;22;20019;-74
2022/01/17 13:38:23;;;;;;;6.63;2.38;;;;;;;;;;6315087;22;20073;-74
2022/01/17 13:40:56;;;;;;;6.05;2.72;;;;;;;;;;6315142;22;20019;-74
2022/01/17 13:43:25;;;;;;;6.53;2.50;;;;;;;;;;6314831;22;20015;-74
2022/01/17 13:45:55;;;;;;;10.43;2.97;;;;;;;;;;6313221;22;20084;-74
2022/01/17 13:48:26;;;;;;;9.67;3.50;;;;;;;;;;6312347;22;20023;-74
2022/01/17 13:51:24;;;;;;;7.38;2.95;;;;;;;;;;6308605;22;20108;-74
2022/01/17 13:53:55;;;;;;;7.03;2.38;;;;;;;;;;6305937;22;20070;-74
2022/01/17 13:56:32;;;;;;;8.40;3.40;;;;;;;;;;6305185;22;20015;-74
2022/01/17 13:59:01;;;;;;;4.93;2.05;;;;;;;;;;6305173;22;20022;-74
2022/01/17 14:01:37;;;;;;;5.57;2.23;;;;;;;;;;6305144;22;20358;-74
2022/01/17 14:04:16;;;;;;;7.80;3.38;;;;;;;;;;6312291;22;20019;-73
2022/01/17 14:06:45;;;;;;;8.40;3.13;;;;;;;;;;6309557;22;20014;-74
2022/01/17 14:09:15;;;;;;;5.55;2.00;;;;;;;;;;6283521;22;20027;-73
2022/01/17 14:11:46;;;;;;;6.68;2.45;;;;;;;;;;6309657;22;20018;-74
2022/01/17 14:14:17;;;;;;;6.00;2.43;;;;;;;;;;6308852;22;20010;-74
2022/01/17 14:16:48;;;;;;;6.93;2.03;;;;;;;;;;6308836;22;20345;-73
2022/01/17 14:19:17;;;;;;;7.28;2.40;;;;;;;;;;6336146;22;20006;-74
2022/01/17 14:21:48;;;;;;;5.43;2.03;;;;;;;;;;6308846;22;20029;-74
2022/01/17 14:24:19;;;;;;;8.85;2.65;;;;;;;;;;6336913;22;20015;-74
2022/01/17 14:27:10;;;;;;;10.90;3.13;;;;;;;;;;6337146;22;20082;-74
2022/01/17 14:29:41;;;;;;;4.47;2.40;;;;;;;;;;6337537;22;20514;-74
2022/01/17 14:32:11;;;;;;;6.80;2.63;;;;;;;;;;6336335;22;20018;-74
2022/01/17 14:34:41;;;;;;;4.13;2.20;;;;;;;;;;6336928;22;20041;-74
2022/01/17 14:37:11;;;;;;;6.90;2.85;;;;;;;;;;6336421;22;20019;-74
2022/01/17 14:39:46;;;;;;;8.20;3.47;;;;;;;;;;6336979;22;20019;-74
2022/01/17 14:42:21;;;;;;;7.47;3.67;;;;;;;;;;6336207;22;20019;-73
2022/01/17 14:44:54;;;;;;;8.60;3.80;;;;;;;;;;6309359;22;20025;-74
2022/01/17 14:47:48;;;;;;;6.53;3.00;;;;;;;;;;6335633;22;20030;-73
2022/01/17 14:50:20;;;;;;;8.40;2.60;;;;;;;;;;6336647;22;20071;-74
2022/01/17 14:52:49;;;;;;;7.40;2.63;;;;;;;;;;6336139;22;20383;-74
2022/01/17 14:55:50;;;;;;;4.28;2.35;;;;;;;;;;6336072;22;20528;-74
2022/01/17 15:01:09;;;;;;;7.60;3.85;;;;;;;;;;6337010;22;20026;-74
2022/01/17 15:03:41;;;;;;;7.88;1.92;;;;;;;;;;6333454;22;20119;-74
2022/01/17 15:06:14;;;;;;;6.90;3.50;;;;;;;;;;6335955;22;20015;-74
2022/01/17 15:08:45;;;;;;;7.70;3.78;;;;;;;;;;6335707;22;20015;-74
2022/01/17 15:11:14;;;;;;;6.60;2.70;;;;;;;;;;6334957;22;20465;-74
2022/01/17 15:13:44;;;;;;;5.82;2.90;;;;;;;;;;6334943;22;20023;-74
2022/01/17 15:16:14;;;;;;;7.05;2.55;;;;;;;;;;6336759;22;20038;-74
2022/01/17 15:18:44;;;;;;;7.80;3.47;;;;;;;;;;6335379;22;20227;-73
2022/01/17 15:21:14;;;;;;;6.32;3.47;;;;;;;;;;6336725;22;20017;-74
2022/01/17 15:23:43;;;;;;;11.05;3.95;;;;;;;;;;6337862;22;20006;-77
2022/01/17 15:26:25;;;;;;;6.05;2.50;;;;;;;;;;6310483;22;20133;-76
2022/01/17 15:29:02;;;;;;;6.53;3.25;;;;;;;;;;6286955;22;20499;-79
2022/01/17 15:31:33;;;;;;;7.47;2.43;;;;;;;;;;6335122;22;20068;-77
2022/01/17 15:34:03;;;;;;;7.68;3.28;;;;;;;;;;6335454;22;20014;-77
2022/01/17 15:36:32;;;;;;;9.10;3.42;;;;;;;;;;6335870;22;20090;-77
2022/01/17 15:39:02;;;;;;;5.78;3.10;;;;;;;;;;6335730;22;20041;-77
2022/01/17 15:41:31;;;;;;;6.07;2.90;;;;;;;;;;6321063;22;20539;-80
2022/01/17 15:43:59;;;;;;;9.77;3.47;;;;;;;;;;6342217;22;20060;-78
2022/01/17 15:46:32;;;;;;;6.90;3.33;;;;;;;;;;6338590;22;20014;-79
2022/01/17 15:49:01;;;;;;;8.55;3.42;;;;;;;;;;6338893;22;20014;-79
2022/01/17 15:51:48;;;;;;;6.43;3.28;;;;;;;;;;6319395;22;20017;-81
2022/01/17 15:54:17;;;;;;;5.90;3.08;;;;;;;;;;6343441;22;20026;-79